sensor_id;sensor_type;location;lat;lon;timestamp;P1;durP1;ratioP1;P2;durP2;ratioP2
66927;SDS011;59882;45.624;11.698;2023-11-21T00:01:35;62.85;;;43.70;;
66927;SDS011;59882;45.624;11.698;2023-11-21T00:04:02;61.20;;;42.50;;
66927;SDS011;59882;45.624;11.698;2023-11-21T00:06:28;58.78;;;41.92;;
66927;SDS011;59882;45.624;11.698;2023-11-21T00:08:55;61.80;;;43.33;;
66927;SDS011;59882;45.624;11.698;2023-11-21T00:11:21;64.55;;;43.10;;
66927;SDS011;59882;45.624;11.698;2023-11-21T00:13:46;58.33;;;42.03;;
66927;SDS011;59882;45.624;11.698;2023-11-21T00:16:12;60.70;;;41.95;;
66927;SDS011;59882;45.624;11.698;2023-11-21T00:18:38;61.60;;;41.37;;
66927;SDS011;59882;45.624;11.698;2023-11-21T00:21:04;65.13;;;42.08;;
66927;SDS011;59882;45.624;11.698;2023-11-21T00:23:30;60.47;;;40.03;;
66927;SDS011;59882;45.624;11.698;2023-11-21T00:25:55;56.53;;;38.73;;
66927;SDS011;59882;45.624;11.698;2023-11-21T00:28:21;60.65;;;40.33;;
66927;SDS011;59882;45.624;11.698;2023-11-21T00:30:47;59.07;;;38.43;;
66927;SDS011;59882;45.624;11.698;2023-11-21T00:33:13;55.73;;;39.43;;
66927;SDS011;59882;45.624;11.698;2023-11-21T00:35:38;59.07;;;39.13;;
66927;SDS011;59882;45.624;11.698;2023-11-21T00:38:04;59.20;;;39.43;;
66927;SDS011;59882;45.624;11.698;2023-11-21T00:40:30;57.37;;;38.43;;
66927;SDS011;59882;45.624;11.698;2023-11-21T00:42:55;52.13;;;37.63;;
66927;SDS011;59882;45.624;11.698;2023-11-21T00:45:21;55.60;;;37.83;;
66927;SDS011;59882;45.624;11.698;2023-11-21T00:47:47;55.77;;;38.07;;
66927;SDS011;59882;45.624;11.698;2023-11-21T00:50:12;52.75;;;37.67;;
66927;SDS011;59882;45.624;11.698;2023-11-21T00:52:38;52.83;;;37.83;;
66927;SDS011;59882;45.624;11.698;2023-11-21T00:55:04;51.00;;;37.60;;
66927;SDS011;59882;45.624;11.698;2023-11-21T00:57:32;56.15;;;37.78;;
66927;SDS011;59882;45.624;11.698;2023-11-21T00:59:58;53.63;;;35.50;;
66927;SDS011;59882;45.624;11.698;2023-11-21T01:02:24;55.17;;;38.20;;
66927;SDS011;59882;45.624;11.698;2023-11-21T01:04:50;57.38;;;39.53;;
66927;SDS011;59882;45.624;11.698;2023-11-21T01:07:16;53.47;;;36.67;;
66927;SDS011;59882;45.624;11.698;2023-11-21T01:09:45;54.33;;;38.50;;
66927;SDS011;59882;45.624;11.698;2023-11-21T01:12:11;62.08;;;40.63;;
66927;SDS011;59882;45.624;11.698;2023-11-21T01:14:36;54.33;;;38.40;;
66927;SDS011;59882;45.624;11.698;2023-11-21T01:17:02;55.75;;;39.90;;
66927;SDS011;59882;45.624;11.698;2023-11-21T01:19:29;53.43;;;38.50;;
66927;SDS011;59882;45.624;11.698;2023-11-21T01:21:55;57.28;;;38.45;;
66927;SDS011;59882;45.624;11.698;2023-11-21T01:24:22;56.95;;;38.47;;
66927;SDS011;59882;45.624;11.698;2023-11-21T01:26:48;55.23;;;38.63;;
66927;SDS011;59882;45.624;11.698;2023-11-21T01:29:14;51.47;;;36.33;;
66927;SDS011;59882;45.624;11.698;2023-11-21T01:31:40;54.78;;;37.20;;
66927;SDS011;59882;45.624;11.698;2023-11-21T01:34:06;52.72;;;37.80;;
66927;SDS011;59882;45.624;11.698;2023-11-21T01:36:32;53.22;;;37.80;;
66927;SDS011;59882;45.624;11.698;2023-11-21T01:38:58;56.35;;;38.63;;
66927;SDS011;59882;45.624;11.698;2023-11-21T01:41:25;55.97;;;38.00;;
66927;SDS011;59882;45.624;11.698;2023-11-21T01:43:52;52.17;;;37.35;;
66927;SDS011;59882;45.624;11.698;2023-11-21T01:46:18;53.90;;;38.03;;
66927;SDS011;59882;45.624;11.698;2023-11-21T01:48:45;55.05;;;37.70;;
66927;SDS011;59882;45.624;11.698;2023-11-21T01:51:13;54.88;;;37.85;;
66927;SDS011;59882;45.624;11.698;2023-11-21T01:53:38;55.10;;;36.77;;
66927;SDS011;59882;45.624;11.698;2023-11-21T01:56:04;55.13;;;37.72;;
66927;SDS011;59882;45.624;11.698;2023-11-21T01:58:33;53.90;;;36.60;;
66927;SDS011;59882;45.624;11.698;2023-11-21T02:00:59;50.83;;;37.13;;
66927;SDS011;59882;45.624;11.698;2023-11-21T02:03:24;52.63;;;37.42;;
66927;SDS011;59882;45.624;11.698;2023-11-21T02:05:51;54.30;;;35.10;;
66927;SDS011;59882;45.624;11.698;2023-11-21T02:08:18;52.53;;;36.15;;
66927;SDS011;59882;45.624;11.698;2023-11-21T02:10:44;48.20;;;34.72;;
66927;SDS011;59882;45.624;11.698;2023-11-21T02:13:10;50.55;;;35.42;;
66927;SDS011;59882;45.624;11.698;2023-11-21T02:15:36;50.57;;;36.03;;
66927;SDS011;59882;45.624;11.698;2023-11-21T02:18:03;48.17;;;32.83;;
66927;SDS011;59882;45.624;11.698;2023-11-21T02:20:31;51.70;;;35.58;;
66927;SDS011;59882;45.624;11.698;2023-11-21T02:22:59;49.95;;;36.17;;
66927;SDS011;59882;45.624;11.698;2023-11-21T02:25:25;51.70;;;36.63;;
66927;SDS011;59882;45.624;11.698;2023-11-21T02:27:56;50.17;;;35.23;;
66927;SDS011;59882;45.624;11.698;2023-11-21T02:30:24;50.95;;;35.13;;
66927;SDS011;59882;45.624;11.698;2023-11-21T02:32:59;49.53;;;35.63;;
66927;SDS011;59882;45.624;11.698;2023-11-21T02:35:28;50.13;;;35.33;;
66927;SDS011;59882;45.624;11.698;2023-11-21T02:37:55;49.88;;;35.05;;
66927;SDS011;59882;45.624;11.698;2023-11-21T02:40:21;51.90;;;36.37;;
66927;SDS011;59882;45.624;11.698;2023-11-21T02:42:49;51.95;;;34.75;;
66927;SDS011;59882;45.624;11.698;2023-11-21T02:45:19;51.63;;;35.17;;
66927;SDS011;59882;45.624;11.698;2023-11-21T02:47:46;54.27;;;35.60;;
66927;SDS011;59882;45.624;11.698;2023-11-21T02:50:12;48.72;;;35.10;;
66927;SDS011;59882;45.624;11.698;2023-11-21T02:52:38;48.75;;;34.00;;
66927;SDS011;59882;45.624;11.698;2023-11-21T02:55:05;52.10;;;34.97;;
66927;SDS011;59882;45.624;11.698;2023-11-21T02:57:32;50.00;;;35.28;;
66927;SDS011;59882;45.624;11.698;2023-11-21T02:59:58;50.93;;;35.27;;
66927;SDS011;59882;45.624;11.698;2023-11-21T03:02:25;47.17;;;33.33;;
66927;SDS011;59882;45.624;11.698;2023-11-21T03:04:51;48.88;;;33.63;;
66927;SDS011;59882;45.624;11.698;2023-11-21T03:07:16;47.87;;;33.20;;
66927;SDS011;59882;45.624;11.698;2023-11-21T03:09:44;50.30;;;33.90;;
66927;SDS011;59882;45.624;11.698;2023-11-21T03:12:10;49.80;;;34.78;;
66927;SDS011;59882;45.624;11.698;2023-11-21T03:14:40;49.25;;;33.97;;
66927;SDS011;59882;45.624;11.698;2023-11-21T03:17:06;50.50;;;34.40;;
66927;SDS011;59882;45.624;11.698;2023-11-21T03:19:32;50.30;;;33.03;;
66927;SDS011;59882;45.624;11.698;2023-11-21T03:21:57;46.93;;;33.90;;
66927;SDS011;59882;45.624;11.698;2023-11-21T03:24:23;47.28;;;33.47;;
66927;SDS011;59882;45.624;11.698;2023-11-21T03:26:49;45.92;;;31.50;;
66927;SDS011;59882;45.624;11.698;2023-11-21T03:29:16;47.47;;;33.97;;
66927;SDS011;59882;45.624;11.698;2023-11-21T03:31:41;42.73;;;30.70;;
66927;SDS011;59882;45.624;11.698;2023-11-21T03:34:10;43.05;;;32.33;;
66927;SDS011;59882;45.624;11.698;2023-11-21T03:36:44;49.30;;;32.87;;
66927;SDS011;59882;45.624;11.698;2023-11-21T03:39:11;44.72;;;31.52;;
66927;SDS011;59882;45.624;11.698;2023-11-21T03:41:37;49.17;;;33.55;;
66927;SDS011;59882;45.624;11.698;2023-11-21T03:44:02;46.80;;;33.43;;
66927;SDS011;59882;45.624;11.698;2023-11-21T03:46:28;48.80;;;33.67;;
66927;SDS011;59882;45.624;11.698;2023-11-21T03:48:53;49.17;;;33.27;;
66927;SDS011;59882;45.624;11.698;2023-11-21T03:51:20;48.60;;;33.67;;
66927;SDS011;59882;45.624;11.698;2023-11-21T03:53:46;49.28;;;33.78;;
66927;SDS011;59882;45.624;11.698;2023-11-21T03:56:13;52.33;;;34.43;;
66927;SDS011;59882;45.624;11.698;2023-11-21T03:58:39;46.88;;;31.67;;
66927;SDS011;59882;45.624;11.698;2023-11-21T04:01:05;46.97;;;33.20;;
66927;SDS011;59882;45.624;11.698;2023-11-21T04:03:30;47.53;;;33.72;;
66927;SDS011;59882;45.624;11.698;2023-11-21T04:05:56;46.93;;;33.57;;
66927;SDS011;59882;45.624;11.698;2023-11-21T04:08:22;47.10;;;33.87;;
66927;SDS011;59882;45.624;11.698;2023-11-21T04:10:47;45.03;;;33.00;;
66927;SDS011;59882;45.624;11.698;2023-11-21T04:13:13;44.83;;;31.75;;
66927;SDS011;59882;45.624;11.698;2023-11-21T04:15:39;40.45;;;29.45;;
66927;SDS011;59882;45.624;11.698;2023-11-21T04:18:05;43.33;;;31.13;;
66927;SDS011;59882;45.624;11.698;2023-11-21T04:20:30;45.50;;;29.33;;
66927;SDS011;59882;45.624;11.698;2023-11-21T04:22:56;40.97;;;28.07;;
66927;SDS011;59882;45.624;11.698;2023-11-21T04:25:22;40.47;;;26.83;;
66927;SDS011;59882;45.624;11.698;2023-11-21T04:27:48;40.88;;;29.90;;
66927;SDS011;59882;45.624;11.698;2023-11-21T04:30:14;41.47;;;28.52;;
66927;SDS011;59882;45.624;11.698;2023-11-21T04:32:40;44.15;;;30.73;;
66927;SDS011;59882;45.624;11.698;2023-11-21T04:35:07;47.00;;;30.35;;
66927;SDS011;59882;45.624;11.698;2023-11-21T04:37:33;38.93;;;28.80;;
66927;SDS011;59882;45.624;11.698;2023-11-21T04:39:59;41.08;;;29.25;;
66927;SDS011;59882;45.624;11.698;2023-11-21T04:42:25;39.80;;;27.87;;
66927;SDS011;59882;45.624;11.698;2023-11-21T04:44:50;49.53;;;32.05;;
66927;SDS011;59882;45.624;11.698;2023-11-21T04:47:17;42.97;;;29.98;;
66927;SDS011;59882;45.624;11.698;2023-11-21T04:49:45;40.23;;;27.57;;
66927;SDS011;59882;45.624;11.698;2023-11-21T04:52:14;45.55;;;29.30;;
66927;SDS011;59882;45.624;11.698;2023-11-21T04:54:40;41.30;;;29.67;;
66927;SDS011;59882;45.624;11.698;2023-11-21T04:57:05;42.27;;;29.30;;
66927;SDS011;59882;45.624;11.698;2023-11-21T04:59:32;42.35;;;29.73;;
66927;SDS011;59882;45.624;11.698;2023-11-21T05:01:59;40.08;;;29.20;;
66927;SDS011;59882;45.624;11.698;2023-11-21T05:04:25;41.20;;;28.67;;
66927;SDS011;59882;45.624;11.698;2023-11-21T05:06:51;44.28;;;29.67;;
66927;SDS011;59882;45.624;11.698;2023-11-21T05:09:16;48.40;;;29.83;;
66927;SDS011;59882;45.624;11.698;2023-11-21T05:11:42;42.17;;;29.08;;
66927;SDS011;59882;45.624;11.698;2023-11-21T05:14:08;42.10;;;28.35;;
66927;SDS011;59882;45.624;11.698;2023-11-21T05:16:34;39.13;;;27.00;;
66927;SDS011;59882;45.624;11.698;2023-11-21T05:19:00;41.53;;;26.10;;
66927;SDS011;59882;45.624;11.698;2023-11-21T05:21:29;40.17;;;26.73;;
66927;SDS011;59882;45.624;11.698;2023-11-21T05:23:57;39.63;;;27.63;;
66927;SDS011;59882;45.624;11.698;2023-11-21T05:26:22;36.10;;;25.25;;
66927;SDS011;59882;45.624;11.698;2023-11-21T05:28:48;35.30;;;24.90;;
66927;SDS011;59882;45.624;11.698;2023-11-21T05:31:13;37.50;;;24.83;;
66927;SDS011;59882;45.624;11.698;2023-11-21T05:33:40;34.47;;;24.17;;
66927;SDS011;59882;45.624;11.698;2023-11-21T05:36:06;35.33;;;23.13;;
66927;SDS011;59882;45.624;11.698;2023-11-21T05:38:33;33.25;;;22.38;;
66927;SDS011;59882;45.624;11.698;2023-11-21T05:40:58;35.17;;;23.47;;
66927;SDS011;59882;45.624;11.698;2023-11-21T05:43:24;32.47;;;22.65;;
66927;SDS011;59882;45.624;11.698;2023-11-21T05:45:50;37.10;;;24.47;;
66927;SDS011;59882;45.624;11.698;2023-11-21T05:48:15;33.87;;;21.93;;
66927;SDS011;59882;45.624;11.698;2023-11-21T05:50:41;31.98;;;21.02;;
66927;SDS011;59882;45.624;11.698;2023-11-21T05:53:06;31.77;;;21.30;;
66927;SDS011;59882;45.624;11.698;2023-11-21T05:55:32;31.98;;;21.58;;
66927;SDS011;59882;45.624;11.698;2023-11-21T05:57:58;33.40;;;21.50;;
66927;SDS011;59882;45.624;11.698;2023-11-21T06:00:25;31.88;;;20.45;;
66927;SDS011;59882;45.624;11.698;2023-11-21T06:02:52;31.50;;;19.60;;
66927;SDS011;59882;45.624;11.698;2023-11-21T06:05:19;31.83;;;20.33;;
66927;SDS011;59882;45.624;11.698;2023-11-21T06:07:48;33.72;;;23.02;;
66927;SDS011;59882;45.624;11.698;2023-11-21T06:10:19;35.75;;;23.98;;
66927;SDS011;59882;45.624;11.698;2023-11-21T06:12:45;34.90;;;22.23;;
66927;SDS011;59882;45.624;11.698;2023-11-21T06:15:11;34.07;;;22.47;;
66927;SDS011;59882;45.624;11.698;2023-11-21T06:17:40;37.90;;;24.80;;
66927;SDS011;59882;45.624;11.698;2023-11-21T06:20:07;37.03;;;24.45;;
66927;SDS011;59882;45.624;11.698;2023-11-21T06:22:37;37.67;;;24.27;;
66927;SDS011;59882;45.624;11.698;2023-11-21T06:25:04;33.03;;;22.45;;
66927;SDS011;59882;45.624;11.698;2023-11-21T06:27:34;41.10;;;24.88;;
66927;SDS011;59882;45.624;11.698;2023-11-21T06:30:03;41.78;;;25.48;;
66927;SDS011;59882;45.624;11.698;2023-11-21T06:32:29;37.25;;;25.15;;
66927;SDS011;59882;45.624;11.698;2023-11-21T06:34:56;34.40;;;23.13;;
66927;SDS011;59882;45.624;11.698;2023-11-21T06:37:24;37.83;;;23.40;;
66927;SDS011;59882;45.624;11.698;2023-11-21T06:39:54;34.33;;;22.58;;
66927;SDS011;59882;45.624;11.698;2023-11-21T06:42:20;152.02;;;93.13;;
66927;SDS011;59882;45.624;11.698;2023-11-21T06:44:46;50.60;;;30.50;;
66927;SDS011;59882;45.624;11.698;2023-11-21T06:47:12;65.60;;;35.45;;
66927;SDS011;59882;45.624;11.698;2023-11-21T06:49:37;76.23;;;40.20;;
66927;SDS011;59882;45.624;11.698;2023-11-21T06:52:03;37.70;;;23.03;;
66927;SDS011;59882;45.624;11.698;2023-11-21T06:54:30;109.15;;;56.30;;
66927;SDS011;59882;45.624;11.698;2023-11-21T06:56:56;102.60;;;57.40;;
66927;SDS011;59882;45.624;11.698;2023-11-21T06:59:22;67.57;;;39.03;;
66927;SDS011;59882;45.624;11.698;2023-11-21T07:01:48;74.53;;;44.42;;
66927;SDS011;59882;45.624;11.698;2023-11-21T07:04:14;67.93;;;42.87;;
66927;SDS011;59882;45.624;11.698;2023-11-21T07:06:40;43.20;;;27.23;;
66927;SDS011;59882;45.624;11.698;2023-11-21T07:09:06;44.05;;;25.35;;
66927;SDS011;59882;45.624;11.698;2023-11-21T07:11:33;27.67;;;21.67;;
66927;SDS011;59882;45.624;11.698;2023-11-21T07:13:59;28.60;;;20.65;;
66927;SDS011;59882;45.624;11.698;2023-11-21T07:16:30;32.60;;;20.35;;
66927;SDS011;59882;45.624;11.698;2023-11-21T07:18:56;29.13;;;20.83;;
66927;SDS011;59882;45.624;11.698;2023-11-21T07:21:21;33.45;;;23.48;;
66927;SDS011;59882;45.624;11.698;2023-11-21T07:23:47;36.60;;;23.33;;
66927;SDS011;59882;45.624;11.698;2023-11-21T07:26:12;35.22;;;23.40;;
66927;SDS011;59882;45.624;11.698;2023-11-21T07:28:38;41.87;;;31.37;;
66927;SDS011;59882;45.624;11.698;2023-11-21T07:31:04;40.97;;;27.97;;
66927;SDS011;59882;45.624;11.698;2023-11-21T07:33:29;31.05;;;22.65;;
66927;SDS011;59882;45.624;11.698;2023-11-21T07:35:55;34.87;;;21.53;;
66927;SDS011;59882;45.624;11.698;2023-11-21T07:38:21;30.23;;;20.60;;
66927;SDS011;59882;45.624;11.698;2023-11-21T07:40:46;38.90;;;24.43;;
66927;SDS011;59882;45.624;11.698;2023-11-21T07:43:12;39.00;;;24.65;;
66927;SDS011;59882;45.624;11.698;2023-11-21T07:45:37;39.57;;;25.40;;
66927;SDS011;59882;45.624;11.698;2023-11-21T07:48:03;37.83;;;23.13;;
66927;SDS011;59882;45.624;11.698;2023-11-21T07:50:30;36.70;;;21.83;;
66927;SDS011;59882;45.624;11.698;2023-11-21T07:52:56;28.80;;;20.77;;
66927;SDS011;59882;45.624;11.698;2023-11-21T07:55:23;32.05;;;19.17;;
66927;SDS011;59882;45.624;11.698;2023-11-21T07:57:49;33.93;;;22.63;;
66927;SDS011;59882;45.624;11.698;2023-11-21T08:00:15;35.70;;;22.10;;
66927;SDS011;59882;45.624;11.698;2023-11-21T08:02:41;31.70;;;21.65;;
66927;SDS011;59882;45.624;11.698;2023-11-21T08:05:07;37.17;;;23.07;;
66927;SDS011;59882;45.624;11.698;2023-11-21T08:07:33;35.75;;;23.98;;
66927;SDS011;59882;45.624;11.698;2023-11-21T08:09:59;37.47;;;23.42;;
66927;SDS011;59882;45.624;11.698;2023-11-21T08:12:25;37.57;;;24.73;;
66927;SDS011;59882;45.624;11.698;2023-11-21T08:14:52;37.00;;;23.95;;
66927;SDS011;59882;45.624;11.698;2023-11-21T08:17:18;42.17;;;25.83;;
66927;SDS011;59882;45.624;11.698;2023-11-21T08:19:45;42.47;;;25.80;;
66927;SDS011;59882;45.624;11.698;2023-11-21T08:22:14;40.97;;;25.63;;
66927;SDS011;59882;45.624;11.698;2023-11-21T08:24:43;41.83;;;26.10;;
66927;SDS011;59882;45.624;11.698;2023-11-21T08:27:09;39.63;;;26.13;;
66927;SDS011;59882;45.624;11.698;2023-11-21T08:29:35;40.47;;;26.00;;
66927;SDS011;59882;45.624;11.698;2023-11-21T08:32:01;32.65;;;21.10;;
66927;SDS011;59882;45.624;11.698;2023-11-21T08:34:27;36.03;;;23.08;;
66927;SDS011;59882;45.624;11.698;2023-11-21T08:36:53;34.65;;;23.08;;
66927;SDS011;59882;45.624;11.698;2023-11-21T08:39:20;39.07;;;22.17;;
66927;SDS011;59882;45.624;11.698;2023-11-21T08:41:49;34.80;;;21.05;;
66927;SDS011;59882;45.624;11.698;2023-11-21T08:44:15;35.28;;;21.15;;
66927;SDS011;59882;45.624;11.698;2023-11-21T08:46:43;32.30;;;21.10;;
66927;SDS011;59882;45.624;11.698;2023-11-21T08:49:10;36.58;;;22.85;;
66927;SDS011;59882;45.624;11.698;2023-11-21T08:51:37;36.40;;;21.43;;
66927;SDS011;59882;45.624;11.698;2023-11-21T08:54:03;31.40;;;21.23;;
66927;SDS011;59882;45.624;11.698;2023-11-21T08:56:29;30.80;;;21.05;;
66927;SDS011;59882;45.624;11.698;2023-11-21T08:58:55;30.98;;;19.55;;
66927;SDS011;59882;45.624;11.698;2023-11-21T09:01:22;26.73;;;18.58;;
66927;SDS011;59882;45.624;11.698;2023-11-21T09:03:48;27.10;;;18.63;;
66927;SDS011;59882;45.624;11.698;2023-11-21T09:06:15;27.15;;;18.85;;
66927;SDS011;59882;45.624;11.698;2023-11-21T09:08:40;24.77;;;17.52;;
66927;SDS011;59882;45.624;11.698;2023-11-21T09:11:07;32.13;;;18.17;;
66927;SDS011;59882;45.624;11.698;2023-11-21T09:13:33;29.45;;;18.88;;
66927;SDS011;59882;45.624;11.698;2023-11-21T09:15:59;31.30;;;19.15;;
66927;SDS011;59882;45.624;11.698;2023-11-21T09:18:25;27.73;;;18.30;;
66927;SDS011;59882;45.624;11.698;2023-11-21T09:20:50;32.47;;;19.73;;
66927;SDS011;59882;45.624;11.698;2023-11-21T09:23:16;33.10;;;23.13;;
66927;SDS011;59882;45.624;11.698;2023-11-21T09:25:43;31.92;;;22.00;;
66927;SDS011;59882;45.624;11.698;2023-11-21T09:28:11;42.38;;;24.52;;
66927;SDS011;59882;45.624;11.698;2023-11-21T09:30:37;39.33;;;24.40;;
66927;SDS011;59882;45.624;11.698;2023-11-21T09:33:03;32.00;;;22.90;;
66927;SDS011;59882;45.624;11.698;2023-11-21T09:35:32;43.53;;;25.03;;
66927;SDS011;59882;45.624;11.698;2023-11-21T09:37:59;45.58;;;26.30;;
66927;SDS011;59882;45.624;11.698;2023-11-21T09:40:26;41.97;;;28.30;;
66927;SDS011;59882;45.624;11.698;2023-11-21T09:42:56;41.35;;;25.48;;
66927;SDS011;59882;45.624;11.698;2023-11-21T09:45:24;36.45;;;23.85;;
66927;SDS011;59882;45.624;11.698;2023-11-21T09:47:52;35.93;;;23.70;;
66927;SDS011;59882;45.624;11.698;2023-11-21T09:50:18;45.85;;;24.55;;
66927;SDS011;59882;45.624;11.698;2023-11-21T09:52:49;36.92;;;25.10;;
66927;SDS011;59882;45.624;11.698;2023-11-21T09:55:22;34.20;;;25.75;;
66927;SDS011;59882;45.624;11.698;2023-11-21T09:57:51;42.30;;;27.23;;
66927;SDS011;59882;45.624;11.698;2023-11-21T10:00:18;41.80;;;26.37;;
66927;SDS011;59882;45.624;11.698;2023-11-21T10:02:46;39.55;;;24.45;;
66927;SDS011;59882;45.624;11.698;2023-11-21T10:05:15;36.78;;;25.38;;
66927;SDS011;59882;45.624;11.698;2023-11-21T10:07:43;40.88;;;28.88;;
66927;SDS011;59882;45.624;11.698;2023-11-21T10:10:12;43.78;;;26.00;;
66927;SDS011;59882;45.624;11.698;2023-11-21T10:12:40;39.57;;;25.33;;
66927;SDS011;59882;45.624;11.698;2023-11-21T10:15:09;38.05;;;25.88;;
66927;SDS011;59882;45.624;11.698;2023-11-21T10:17:40;38.35;;;25.20;;
66927;SDS011;59882;45.624;11.698;2023-11-21T10:20:13;40.83;;;26.38;;
66927;SDS011;59882;45.624;11.698;2023-11-21T10:22:40;45.95;;;28.27;;
66927;SDS011;59882;45.624;11.698;2023-11-21T10:25:09;41.20;;;26.53;;
66927;SDS011;59882;45.624;11.698;2023-11-21T10:27:36;43.20;;;25.80;;
66927;SDS011;59882;45.624;11.698;2023-11-21T10:30:04;40.53;;;27.27;;
66927;SDS011;59882;45.624;11.698;2023-11-21T10:32:33;44.90;;;28.25;;
66927;SDS011;59882;45.624;11.698;2023-11-21T10:34:59;40.87;;;26.70;;
66927;SDS011;59882;45.624;11.698;2023-11-21T10:37:25;49.08;;;29.90;;
66927;SDS011;59882;45.624;11.698;2023-11-21T10:39:56;45.40;;;28.50;;
66927;SDS011;59882;45.624;11.698;2023-11-21T10:42:25;40.85;;;28.02;;
66927;SDS011;59882;45.624;11.698;2023-11-21T10:44:52;41.80;;;28.50;;
66927;SDS011;59882;45.624;11.698;2023-11-21T10:47:18;42.70;;;27.97;;
66927;SDS011;59882;45.624;11.698;2023-11-21T10:49:45;46.00;;;29.83;;
66927;SDS011;59882;45.624;11.698;2023-11-21T10:52:13;41.42;;;28.45;;
66927;SDS011;59882;45.624;11.698;2023-11-21T10:54:42;44.88;;;28.45;;
66927;SDS011;59882;45.624;11.698;2023-11-21T10:57:08;40.45;;;26.85;;
66927;SDS011;59882;45.624;11.698;2023-11-21T10:59:36;52.80;;;28.33;;
66927;SDS011;59882;45.624;11.698;2023-11-21T11:02:07;46.15;;;27.95;;
66927;SDS011;59882;45.624;11.698;2023-11-21T11:04:50;41.33;;;26.85;;
66927;SDS011;59882;45.624;11.698;2023-11-21T11:07:17;38.58;;;26.15;;
66927;SDS011;59882;45.624;11.698;2023-11-21T11:09:45;42.30;;;26.33;;
66927;SDS011;59882;45.624;11.698;2023-11-21T11:12:12;39.00;;;24.67;;
66927;SDS011;59882;45.624;11.698;2023-11-21T11:14:40;43.53;;;28.70;;
66927;SDS011;59882;45.624;11.698;2023-11-21T11:17:06;38.40;;;27.38;;
66927;SDS011;59882;45.624;11.698;2023-11-21T11:19:34;38.15;;;26.73;;
66927;SDS011;59882;45.624;11.698;2023-11-21T11:33:10;47.75;;;29.80;;
66927;SDS011;59882;45.624;11.698;2023-11-21T11:38:20;44.77;;;28.67;;
66927;SDS011;59882;45.624;11.698;2023-11-21T11:40:47;42.58;;;27.67;;
66927;SDS011;59882;45.624;11.698;2023-11-21T11:43:13;40.28;;;28.27;;
66927;SDS011;59882;45.624;11.698;2023-11-21T11:45:49;38.53;;;26.70;;
66927;SDS011;59882;45.624;11.698;2023-11-21T11:48:17;36.53;;;25.45;;
66927;SDS011;59882;45.624;11.698;2023-11-21T11:51:02;33.40;;;23.53;;
66927;SDS011;59882;45.624;11.698;2023-11-21T11:53:46;37.75;;;23.92;;
66927;SDS011;59882;45.624;11.698;2023-11-21T11:58:48;37.15;;;23.08;;
66927;SDS011;59882;45.624;11.698;2023-11-21T12:01:16;30.97;;;21.70;;
66927;SDS011;59882;45.624;11.698;2023-11-21T12:03:44;35.38;;;21.60;;
66927;SDS011;59882;45.624;11.698;2023-11-21T12:06:09;38.88;;;22.63;;
66927;SDS011;59882;45.624;11.698;2023-11-21T12:08:36;37.90;;;23.10;;
66927;SDS011;59882;45.624;11.698;2023-11-21T12:11:03;30.13;;;19.00;;
66927;SDS011;59882;45.624;11.698;2023-11-21T12:13:29;29.92;;;18.58;;
66927;SDS011;59882;45.624;11.698;2023-11-21T12:15:55;30.35;;;17.83;;
66927;SDS011;59882;45.624;11.698;2023-11-21T12:18:21;27.27;;;15.50;;
66927;SDS011;59882;45.624;11.698;2023-11-21T12:20:46;26.63;;;15.10;;
66927;SDS011;59882;45.624;11.698;2023-11-21T12:23:15;26.20;;;15.65;;
66927;SDS011;59882;45.624;11.698;2023-11-21T12:25:42;25.25;;;16.90;;
66927;SDS011;59882;45.624;11.698;2023-11-21T12:28:08;23.75;;;16.20;;
66927;SDS011;59882;45.624;11.698;2023-11-21T12:30:34;26.43;;;16.33;;
66927;SDS011;59882;45.624;11.698;2023-11-21T12:33:01;29.52;;;16.77;;
66927;SDS011;59882;45.624;11.698;2023-11-21T12:35:28;31.95;;;19.55;;
66927;SDS011;59882;45.624;11.698;2023-11-21T12:37:56;26.27;;;18.80;;
66927;SDS011;59882;45.624;11.698;2023-11-21T12:40:25;33.60;;;19.73;;
66927;SDS011;59882;45.624;11.698;2023-11-21T12:42:55;30.17;;;19.40;;
66927;SDS011;59882;45.624;11.698;2023-11-21T12:45:22;31.67;;;21.42;;
66927;SDS011;59882;45.624;11.698;2023-11-21T12:47:56;36.35;;;22.90;;
66927;SDS011;59882;45.624;11.698;2023-11-21T12:50:25;35.88;;;22.35;;
66927;SDS011;59882;45.624;11.698;2023-11-21T12:53:29;31.47;;;19.73;;
66927;SDS011;59882;45.624;11.698;2023-11-21T12:55:48;29.67;;;19.75;;
66927;SDS011;59882;45.624;11.698;2023-11-21T12:58:15;32.47;;;22.40;;
66927;SDS011;59882;45.624;11.698;2023-11-21T13:00:44;32.83;;;21.15;;
66927;SDS011;59882;45.624;11.698;2023-11-21T13:03:12;26.75;;;20.38;;
66927;SDS011;59882;45.624;11.698;2023-11-21T13:05:42;28.37;;;20.33;;
66927;SDS011;59882;45.624;11.698;2023-11-21T13:08:15;31.70;;;22.17;;
66927;SDS011;59882;45.624;11.698;2023-11-21T13:10:44;33.15;;;22.15;;
66927;SDS011;59882;45.624;11.698;2023-11-21T13:13:12;34.92;;;23.27;;
66927;SDS011;59882;45.624;11.698;2023-11-21T13:15:47;38.15;;;23.30;;
66927;SDS011;59882;45.624;11.698;2023-11-21T13:18:15;35.73;;;22.40;;
66927;SDS011;59882;45.624;11.698;2023-11-21T13:20:41;34.95;;;21.73;;
66927;SDS011;59882;45.624;11.698;2023-11-21T13:23:11;32.13;;;22.67;;
66927;SDS011;59882;45.624;11.698;2023-11-21T13:25:40;31.90;;;22.33;;
66927;SDS011;59882;45.624;11.698;2023-11-21T13:28:10;31.15;;;22.63;;
66927;SDS011;59882;45.624;11.698;2023-11-21T13:30:36;24.15;;;17.20;;
66927;SDS011;59882;45.624;11.698;2023-11-21T13:33:04;26.75;;;15.85;;
66927;SDS011;59882;45.624;11.698;2023-11-21T13:35:33;27.77;;;16.95;;
66927;SDS011;59882;45.624;11.698;2023-11-21T13:38:06;24.10;;;18.03;;
66927;SDS011;59882;45.624;11.698;2023-11-21T13:40:37;27.92;;;18.50;;
66927;SDS011;59882;45.624;11.698;2023-11-21T13:43:17;23.17;;;17.52;;
66927;SDS011;59882;45.624;11.698;2023-11-21T13:45:46;26.17;;;18.25;;
66927;SDS011;59882;45.624;11.698;2023-11-21T13:48:14;29.92;;;20.48;;
66927;SDS011;59882;45.624;11.698;2023-11-21T13:50:44;30.20;;;20.63;;
66927;SDS011;59882;45.624;11.698;2023-11-21T13:53:20;28.90;;;20.05;;
66927;SDS011;59882;45.624;11.698;2023-11-21T13:55:49;29.85;;;20.83;;
66927;SDS011;59882;45.624;11.698;2023-11-21T13:58:16;30.27;;;20.92;;
66927;SDS011;59882;45.624;11.698;2023-11-21T14:00:48;28.90;;;20.75;;
66927;SDS011;59882;45.624;11.698;2023-11-21T14:03:21;32.27;;;22.13;;
66927;SDS011;59882;45.624;11.698;2023-11-21T14:05:49;39.55;;;26.23;;
66927;SDS011;59882;45.624;11.698;2023-11-21T14:08:20;36.88;;;26.73;;
66927;SDS011;59882;45.624;11.698;2023-11-21T14:10:50;36.45;;;24.40;;
66927;SDS011;59882;45.624;11.698;2023-11-21T14:13:20;35.20;;;24.02;;
66927;SDS011;59882;45.624;11.698;2023-11-21T14:15:48;31.97;;;23.23;;
66927;SDS011;59882;45.624;11.698;2023-11-21T14:18:19;27.42;;;19.83;;
66927;SDS011;59882;45.624;11.698;2023-11-21T14:20:52;27.77;;;19.73;;
66927;SDS011;59882;45.624;11.698;2023-11-21T14:23:18;27.88;;;18.88;;
66927;SDS011;59882;45.624;11.698;2023-11-21T14:25:43;31.50;;;20.33;;